Time;durP1;ratioP1;P1;durP2;ratioP2;P2;SDS_P1;SDS_P2;PMS_P1;PMS_P2;Temp;Humidity;BMP_temperature;BMP_pressure;BME280_temperature;BME280_humidity;BME280_pressure;Samples;Min_cycle;Max_cycle;Signal;HPM_P1;HPM_P2
2022/02/23 00:01:17;;;;;;;4.70;2.53;;;7.20;72.20;;;;;;4962715;28;20030;-74
2022/02/23 00:03:43;;;;;;;5.40;2.03;;;7.20;72.00;;;;;;4967954;28;20051;-74
2022/02/23 00:06:08;;;;;;;4.28;1.70;;;7.00;72.30;;;;;;4972466;28;20133;-74
2022/02/23 00:08:34;;;;;;;3.38;1.60;;;7.00;72.30;;;;;;4972465;28;20045;-74
2022/02/23 00:11:00;;;;;;;5.45;1.80;;;6.90;72.80;;;;;;4971769;28;20035;-74
2022/02/23 00:13:27;;;;;;;5.15;1.73;;;6.80;73.20;;;;;;4974446;28;20038;-74
2022/02/23 00:15:54;;;;;;;3.47;1.60;;;6.70;73.40;;;;;;4970293;28;20038;-73
2022/02/23 00:18:20;;;;;;;3.67;1.65;;;6.50;74.70;;;;;;4970227;28;20027;-73
2022/02/23 00:20:47;;;;;;;6.90;1.45;;;6.20;75.20;;;;;;4970054;28;20093;-73
2022/02/23 00:23:12;;;;;;;4.13;1.92;;;6.20;74.90;;;;;;4969798;28;20034;-74
2022/02/23 00:25:38;;;;;;;2.85;1.15;;;6.30;75.10;;;;;;4970467;28;20083;-74
2022/02/23 00:28:04;;;;;;;4.70;1.88;;;6.30;74.80;;;;;;4976718;28;20031;-74
2022/02/23 00:30:30;;;;;;;5.68;2.00;;;6.40;74.60;;;;;;4972362;28;20031;-74
2022/02/23 00:32:56;;;;;;;3.85;1.70;;;6.40;74.60;;;;;;4974706;28;20434;-73
2022/02/23 00:35:22;;;;;;;4.00;1.65;;;6.40;74.90;;;;;;4974862;28;20042;-74
2022/02/23 00:37:48;;;;;;;4.03;1.48;;;6.40;74.20;;;;;;4979435;28;20038;-74
2022/02/23 00:40:14;;;;;;;6.75;3.05;;;6.30;74.50;;;;;;4971737;28;20038;-74
2022/02/23 00:42:40;;;;;;;3.88;1.70;;;6.30;74.80;;;;;;4948780;28;20038;-74
2022/02/23 00:45:06;;;;;;;4.07;1.63;;;6.20;74.80;;;;;;4969638;28;20023;-74
2022/02/23 00:47:31;;;;;;;4.40;1.80;;;6.30;74.70;;;;;;4971714;28;20031;-73
2022/02/23 00:49:57;;;;;;;3.95;2.20;;;6.40;74.60;;;;;;4970717;28;20034;-74
2022/02/23 00:52:23;;;;;;;3.78;1.80;;;6.40;74.60;;;;;;4976660;28;20029;-74
2022/02/23 00:54:49;;;;;;;3.35;1.33;;;6.40;73.90;;;;;;4980868;28;20038;-73
2022/02/23 00:57:15;;;;;;;5.30;2.28;;;6.50;73.20;;;;;;4972214;28;20113;-74
2022/02/23 00:59:42;;;;;;;4.70;1.38;;;6.40;73.90;;;;;;4975873;28;20390;-73
2022/02/23 01:02:08;;;;;;;4.38;2.20;;;6.30;74.50;;;;;;4974039;28;20188;-74
2022/02/23 01:04:34;;;;;;;5.13;1.60;;;6.10;75.10;;;;;;4968086;28;20042;-73
2022/02/23 01:06:59;;;;;;;3.38;1.50;;;6.20;75.20;;;;;;4968112;28;20123;-73
2022/02/23 01:09:25;;;;;;;3.95;1.83;;;6.20;75.10;;;;;;4967297;28;20034;-74
2022/02/23 01:11:51;;;;;;;4.00;2.28;;;6.10;75.60;;;;;;4967997;28;20084;-73
2022/02/23 01:14:17;;;;;;;4.00;1.98;;;6.30;74.70;;;;;;4964978;28;20097;-73
2022/02/23 01:16:42;;;;;;;6.75;1.80;;;6.30;74.80;;;;;;4972360;28;20043;-73
2022/02/23 01:19:09;;;;;;;3.58;1.70;;;6.40;74.60;;;;;;4971157;28;20027;-73
2022/02/23 01:21:34;;;;;;;5.20;1.98;;;6.40;74.60;;;;;;4969634;28;20062;-74
2022/02/23 01:24:00;;;;;;;4.53;2.08;;;6.30;74.70;;;;;;4984942;28;20121;-73
2022/02/23 01:26:26;;;;;;;3.20;1.55;;;6.30;74.90;;;;;;4971056;28;20081;-73
2022/02/23 01:28:52;;;;;;;4.00;2.00;;;6.40;74.20;;;;;;4971266;28;20039;-73
2022/02/23 01:31:17;;;;;;;4.75;1.60;;;6.40;74.20;;;;;;4970744;28;20037;-74
2022/02/23 01:33:43;;;;;;;4.80;1.98;;;6.20;75.00;;;;;;4968671;28;20090;-73
2022/02/23 01:36:09;;;;;;;3.67;1.80;;;5.90;75.60;;;;;;4968757;28;20035;-73
2022/02/23 01:38:35;;;;;;;9.20;2.13;;;5.90;75.70;;;;;;4966793;28;20473;-73
2022/02/23 01:41:03;;;;;;;3.63;1.95;;;5.80;76.10;;;;;;4971016;28;20030;-74
2022/02/23 01:43:29;;;;;;;3.42;1.10;;;5.70;76.60;;;;;;4969716;28;20118;-73
2022/02/23 01:45:56;;;;;;;3.70;1.55;;;5.60;76.80;;;;;;4973668;28;20078;-73
2022/02/23 01:48:22;;;;;;;2.80;1.20;;;5.50;77.10;;;;;;4971759;28;20629;-74
2022/02/23 01:50:48;;;;;;;3.33;1.52;;;5.40;77.70;;;;;;4971672;28;20045;-73
2022/02/23 01:53:14;;;;;;;5.00;1.80;;;5.60;76.60;;;;;;4970440;28;20022;-74
2022/02/23 01:55:40;;;;;;;3.25;1.42;;;5.60;76.70;;;;;;4968319;28;20050;-73
2022/02/23 01:58:06;;;;;;;3.25;1.48;;;5.60;76.80;;;;;;4967934;28;21398;-74
2022/02/23 02:00:32;;;;;;;3.40;1.45;;;5.80;76.10;;;;;;4972092;28;20366;-73
2022/02/23 02:02:57;;;;;;;2.75;1.30;;;5.70;76.40;;;;;;4966668;28;20517;-73
2022/02/23 02:05:23;;;;;;;4.40;1.48;;;5.60;76.80;;;;;;4975558;28;20031;-73
2022/02/23 02:07:49;;;;;;;4.22;1.95;;;5.60;77.00;;;;;;4972546;28;20370;-74
2022/02/23 02:10:14;;;;;;;2.75;1.20;;;5.50;76.40;;;;;;4969551;28;20073;-73
2022/02/23 02:12:41;;;;;;;4.05;1.58;;;5.50;76.40;;;;;;4975340;28;20031;-74
2022/02/23 02:15:07;;;;;;;3.17;1.30;;;5.50;76.70;;;;;;4970238;28;20393;-73
2022/02/23 02:17:33;;;;;;;2.38;1.05;;;5.30;77.20;;;;;;4971226;28;20034;-73
2022/02/23 02:19:58;;;;;;;2.80;1.20;;;5.10;77.90;;;;;;4969505;28;20678;-73
2022/02/23 02:22:28;;;;;;;2.95;1.10;;;5.00;78.20;;;;;;4970752;28;20026;-73
2022/02/23 02:25:01;;;;;;;2.53;0.90;;;5.00;77.90;;;;;;4971017;28;20057;-73
2022/02/23 02:27:27;;;;;;;2.22;0.98;;;4.80;78.70;;;;;;4970337;28;20245;-73
2022/02/23 02:29:53;;;;;;;2.60;0.80;;;4.70;79.00;;;;;;4970859;28;20114;-73
2022/02/23 02:32:18;;;;;;;2.05;0.85;;;4.70;79.00;;;;;;4971371;28;20042;-73
2022/02/23 02:34:45;;;;;;;1.80;0.82;;;4.60;79.20;;;;;;4967983;28;20109;-73
2022/02/23 02:37:12;;;;;;;2.28;1.00;;;4.60;79.10;;;;;;4969951;28;20038;-73
2022/02/23 02:39:38;;;;;;;2.72;0.93;;;4.70;78.80;;;;;;4967324;28;20066;-73
2022/02/23 02:42:05;;;;;;;3.45;1.10;;;4.70;78.30;;;;;;4970138;28;20591;-73
2022/02/23 02:44:31;;;;;;;3.97;1.60;;;4.60;79.10;;;;;;4967298;28;20041;-73
2022/02/23 02:46:57;;;;;;;3.22;1.35;;;4.70;79.00;;;;;;4970046;28;20154;-73
2022/02/23 02:49:22;;;;;;;4.03;1.85;;;4.70;78.80;;;;;;4970626;28;20075;-73
2022/02/23 02:51:48;;;;;;;3.42;1.23;;;4.90;78.00;;;;;;4968865;28;20153;-73
2022/02/23 02:54:14;;;;;;;4.03;1.40;;;5.00;77.70;;;;;;4969310;28;20393;-73
2022/02/23 02:56:40;;;;;;;2.53;1.05;;;5.10;77.00;;;;;;4969684;28;20027;-73
2022/02/23 02:59:07;;;;;;;2.47;1.23;;;5.00;77.30;;;;;;4967918;28;20038;-73
2022/02/23 03:01:34;;;;;;;4.50;1.65;;;5.00;77.20;;;;;;4970260;28;20026;-73
2022/02/23 03:04:01;;;;;;;4.47;1.42;;;4.90;78.00;;;;;;4970750;28;20058;-73
2022/02/23 03:06:27;;;;;;;3.67;1.15;;;4.80;79.00;;;;;;4970478;28;20035;-73
2022/02/23 03:08:54;;;;;;;2.60;1.08;;;4.80;77.80;;;;;;4963458;28;20030;-74
2022/02/23 03:11:20;;;;;;;2.72;1.10;;;4.70;78.80;;;;;;4953944;28;20031;-74
2022/02/23 03:13:46;;;;;;;2.10;1.02;;;4.50;79.00;;;;;;4954457;28;20092;-74
2022/02/23 03:16:14;;;;;;;2.42;0.93;;;4.50;79.60;;;;;;4966752;28;20477;-73
2022/02/23 03:18:40;;;;;;;2.17;0.90;;;4.40;79.60;;;;;;4966329;28;20531;-73
2022/02/23 03:21:06;;;;;;;3.08;1.73;;;4.60;79.20;;;;;;4965949;28;20030;-74
2022/02/23 03:23:33;;;;;;;4.40;1.48;;;4.70;78.60;;;;;;4965061;28;20121;-74
2022/02/23 03:25:58;;;;;;;3.25;1.23;;;4.70;78.40;;;;;;4965414;28;20027;-74
2022/02/23 03:28:24;;;;;;;3.45;1.40;;;4.60;79.10;;;;;;4964181;28;20031;-74
2022/02/23 03:30:51;;;;;;;3.47;1.38;;;4.60;78.80;;;;;;4965731;28;20034;-74
2022/02/23 03:33:17;;;;;;;2.60;1.33;;;4.80;77.90;;;;;;4964651;28;20066;-73
2022/02/23 03:35:44;;;;;;;3.85;1.33;;;4.80;78.00;;;;;;4963892;28;20467;-74
2022/02/23 03:38:11;;;;;;;2.72;1.30;;;4.70;78.40;;;;;;4980491;28;20030;-74
2022/02/23 03:40:38;;;;;;;3.63;1.30;;;4.70;78.20;;;;;;4962517;28;20373;-73
2022/02/23 03:43:03;;;;;;;3.15;1.35;;;4.80;77.70;;;;;;4964644;28;20438;-73
2022/02/23 03:45:30;;;;;;;4.28;1.30;;;4.90;78.30;;;;;;4964179;28;20065;-73
2022/02/23 03:47:56;;;;;;;4.03;1.25;;;4.90;78.00;;;;;;4964078;28;20129;-73
2022/02/23 03:50:22;;;;;;;3.85;0.90;;;4.60;79.10;;;;;;4958863;28;20042;-74
2022/02/23 03:52:48;;;;;;;2.95;1.15;;;4.50;79.40;;;;;;4965927;28;20042;-73
2022/02/23 03:55:15;;;;;;;2.67;1.10;;;4.50;79.40;;;;;;4964150;28;20042;-74
2022/02/23 03:57:41;;;;;;;3.38;1.02;;;4.60;78.80;;;;;;4962800;28;20030;-74
2022/02/23 04:00:10;;;;;;;3.03;1.15;;;4.70;78.80;;;;;;4962180;28;20039;-72
2022/02/23 04:02:36;;;;;;;2.72;1.00;;;4.60;79.70;;;;;;4963235;28;20031;-73
2022/02/23 04:05:02;;;;;;;3.35;1.27;;;4.40;80.60;;;;;;4968951;28;20046;-73
2022/02/23 04:07:28;;;;;;;5.43;1.63;;;4.50;79.90;;;;;;4963585;28;20038;-73
2022/02/23 04:09:54;;;;;;;2.42;1.08;;;4.50;79.60;;;;;;4963499;28;20806;-73
2022/02/23 04:12:19;;;;;;;4.72;1.30;;;4.50;79.30;;;;;;4959416;28;20058;-73
2022/02/23 04:14:46;;;;;;;3.88;1.52;;;4.50;79.70;;;;;;4959894;28;20485;-73
2022/02/23 04:17:11;;;;;;;4.10;1.52;;;4.40;80.60;;;;;;4964204;28;20046;-73
2022/02/23 04:19:37;;;;;;;3.60;1.58;;;4.20;80.60;;;;;;4971611;28;20042;-73
2022/02/23 04:22:04;;;;;;;2.65;1.08;;;4.10;81.30;;;;;;4964310;28;20132;-73
2022/02/23 04:24:29;;;;;;;3.85;1.70;;;4.10;80.90;;;;;;4956804;28;20033;-73
2022/02/23 04:26:55;;;;;;;3.10;1.35;;;4.20;80.60;;;;;;4960527;28;20027;-73
2022/02/23 04:29:21;;;;;;;2.72;1.10;;;4.10;80.80;;;;;;4970718;28;20058;-73
2022/02/23 04:31:48;;;;;;;5.05;1.58;;;4.10;80.90;;;;;;4956041;28;20113;-73
2022/02/23 04:34:14;;;;;;;3.20;1.00;;;4.10;80.90;;;;;;4968124;28;20034;-73
2022/02/23 04:36:40;;;;;;;1.90;0.80;;;4.00;81.40;;;;;;4960830;28;20101;-73
2022/02/23 04:39:06;;;;;;;2.30;0.93;;;4.00;81.80;;;;;;4964734;28;20515;-73
2022/02/23 04:41:32;;;;;;;4.47;1.38;;;3.80;82.20;;;;;;4966222;28;20488;-73
2022/02/23 04:43:58;;;;;;;2.28;1.10;;;3.80;82.80;;;;;;4968247;28;20030;-73
2022/02/23 04:46:24;;;;;;;3.80;1.27;;;3.90;82.00;;;;;;4957577;28;20049;-73
2022/02/23 04:48:50;;;;;;;1.90;0.80;;;4.20;81.00;;;;;;4960012;28;20694;-73
2022/02/23 04:51:17;;;;;;;2.33;0.98;;;4.10;81.40;;;;;;4960632;28;21336;-73
2022/02/23 04:53:44;;;;;;;2.10;1.00;;;4.10;81.50;;;;;;4960745;28;20037;-73
2022/02/23 04:56:10;;;;;;;3.67;1.10;;;4.00;82.10;;;;;;4957970;28;20043;-73
2022/02/23 04:58:37;;;;;;;4.90;1.60;;;3.70;83.20;;;;;;4963406;28;20042;-73
2022/02/23 05:01:04;;;;;;;3.45;1.23;;;3.60;83.20;;;;;;4963979;28;20030;-73
2022/02/23 05:03:30;;;;;;;2.90;1.58;;;3.80;82.90;;;;;;4969139;28;20448;-73
2022/02/23 05:05:56;;;;;;;2.28;1.00;;;3.90;82.50;;;;;;4964113;28;20050;-74
2022/02/23 05:08:22;;;;;;;2.67;1.08;;;4.10;80.70;;;;;;4964987;28;20035;-73
2022/02/23 05:10:47;;;;;;;4.82;1.02;;;4.10;81.00;;;;;;4963119;28;20078;-73
2022/02/23 05:13:13;;;;;;;3.90;1.08;;;4.00;81.60;;;;;;4965480;28;20041;-73
2022/02/23 05:15:39;;;;;;;1.42;0.75;;;4.10;81.10;;;;;;4964938;28;20073;-73
2022/02/23 05:18:07;;;;;;;3.25;1.05;;;4.00;82.00;;;;;;4962556;28;20046;-73
2022/02/23 05:20:33;;;;;;;2.83;1.35;;;3.70;83.30;;;;;;4962393;28;20033;-73
2022/02/23 05:22:59;;;;;;;3.40;1.08;;;3.80;82.70;;;;;;4966013;28;20034;-72
2022/02/23 05:25:25;;;;;;;2.78;1.08;;;4.30;81.10;;;;;;4965268;28;20066;-73
2022/02/23 05:27:51;;;;;;;4.05;1.58;;;4.10;80.50;;;;;;4965739;28;20457;-73
2022/02/23 05:30:17;;;;;;;4.10;1.10;;;4.00;80.90;;;;;;4958948;28;20029;-73
2022/02/23 05:32:43;;;;;;;3.60;1.30;;;3.70;82.40;;;;;;4960066;28;20378;-73
2022/02/23 05:35:10;;;;;;;3.42;1.25;;;3.50;83.60;;;;;;4950989;28;20453;-73
2022/02/23 05:37:36;;;;;;;4.07;1.00;;;3.50;84.10;;;;;;4950534;28;20562;-73
2022/02/23 05:40:04;;;;;;;2.35;1.13;;;3.60;83.40;;;;;;4952906;28;20508;-73
2022/02/23 05:42:30;;;;;;;3.03;1.38;;;3.80;82.40;;;;;;4956224;28;20081;-73
2022/02/23 05:44:56;;;;;;;2.55;1.08;;;3.90;81.70;;;;;;4953425;28;20292;-72
2022/02/23 05:47:22;;;;;;;2.78;1.02;;;3.90;81.40;;;;;;4960357;28;20033;-73
2022/02/23 05:49:48;;;;;;;2.75;1.23;;;3.90;81.50;;;;;;4947929;28;20034;-73
2022/02/23 05:52:14;;;;;;;2.22;1.13;;;3.70;82.60;;;;;;4950373;28;20675;-73
2022/02/23 05:54:43;;;;;;;5.28;1.40;;;3.90;81.90;;;;;;4949725;28;20047;-73
2022/02/23 05:57:09;;;;;;;3.20;1.30;;;3.90;82.20;;;;;;4955063;28;20085;-73
2022/02/23 05:59:36;;;;;;;3.75;1.20;;;3.70;83.50;;;;;;4956962;28;20034;-73
2022/02/23 06:02:01;;;;;;;2.92;1.20;;;3.60;83.60;;;;;;4960061;28;20039;-72
2022/02/23 06:04:27;;;;;;;3.20;1.33;;;3.60;82.90;;;;;;4959580;28;20054;-73
2022/02/23 06:06:52;;;;;;;3.67;1.13;;;3.50;84.40;;;;;;4963245;28;20035;-73
2022/02/23 06:09:18;;;;;;;4.05;1.25;;;3.40;84.30;;;;;;4962297;28;20589;-73
2022/02/23 06:11:44;;;;;;;4.05;1.42;;;3.50;83.90;;;;;;4957557;28;20118;-73
2022/02/23 06:14:10;;;;;;;4.32;1.10;;;3.50;83.80;;;;;;4963654;28;20432;-73
2022/02/23 06:16:36;;;;;;;3.78;1.50;;;3.60;84.00;;;;;;4963122;28;20544;-72
2022/02/23 06:19:03;;;;;;;5.40;2.13;;;3.80;83.40;;;;;;4961834;28;20097;-74
2022/02/23 06:21:28;;;;;;;6.95;2.90;;;3.80;83.00;;;;;;4965283;28;20126;-73
2022/02/23 06:23:55;;;;;;;6.53;2.28;;;3.70;83.40;;;;;;4961456;28;20122;-73
2022/02/23 06:26:21;;;;;;;5.55;2.30;;;3.60;83.80;;;;;;4965182;28;20105;-73
2022/02/23 06:28:47;;;;;;;2.75;1.17;;;3.60;83.60;;;;;;4962818;28;20042;-72
2022/02/23 06:31:13;;;;;;;2.97;1.15;;;3.70;83.70;;;;;;4965702;28;20065;-73
2022/02/23 06:33:41;;;;;;;4.63;1.80;;;3.60;84.10;;;;;;4965999;28;20035;-74
2022/02/23 06:36:08;;;;;;;2.78;1.42;;;3.50;84.10;;;;;;4961221;28;20051;-75
2022/02/23 06:38:36;;;;;;;2.55;1.40;;;3.70;85.80;;;;;;4963488;28;20082;-74
2022/02/23 06:41:03;;;;;;;4.25;1.65;;;3.60;85.00;;;;;;4964320;28;20042;-74
2022/02/23 06:43:28;;;;;;;5.25;1.70;;;3.60;84.80;;;;;;4961883;28;20042;-73
2022/02/23 06:45:56;;;;;;;4.05;1.63;;;3.60;83.70;;;;;;4966280;28;20031;-73
2022/02/23 06:48:22;;;;;;;3.72;1.45;;;3.40;84.60;;;;;;4963630;28;20042;-72
2022/02/23 06:50:48;;;;;;;2.72;1.17;;;3.50;85.30;;;;;;4965302;28;20037;-72
2022/02/23 06:53:15;;;;;;;2.33;1.25;;;3.70;83.90;;;;;;4965847;28;20436;-73
2022/02/23 06:55:42;;;;;;;2.47;1.25;;;3.80;83.50;;;;;;4965170;28;20081;-73
2022/02/23 06:58:09;;;;;;;4.22;1.38;;;3.70;83.40;;;;;;4963964;28;20045;-72
2022/02/23 07:00:35;;;;;;;4.35;2.00;;;3.70;83.60;;;;;;4977949;28;20122;-72
2022/02/23 07:03:01;;;;;;;6.22;1.60;;;3.60;84.90;;;;;;4963270;28;20051;-73
2022/02/23 07:05:27;;;;;;;4.88;1.35;;;3.70;85.40;;;;;;4964875;28;20042;-73
2022/02/23 07:07:53;;;;;;;3.65;1.30;;;3.70;84.60;;;;;;4964253;28;20095;-72
2022/02/23 07:10:27;;;;;;;3.25;1.25;;;3.80;84.50;;;;;;4964545;28;20026;-73
2022/02/23 07:12:53;;;;;;;4.80;1.33;;;3.80;83.80;;;;;;4964905;28;20023;-72
2022/02/23 07:15:21;;;;;;;3.10;1.25;;;3.70;84.90;;;;;;4966465;28;20496;-73
2022/02/23 07:17:47;;;;;;;3.38;1.52;;;3.80;84.70;;;;;;4962778;28;20063;-72
2022/02/23 07:20:13;;;;;;;2.65;1.08;;;3.80;84.60;;;;;;4964467;28;20037;-73
2022/02/23 07:22:39;;;;;;;1.55;0.80;;;3.80;84.00;;;;;;4964435;28;20038;-73
2022/02/23 07:25:07;;;;;;;2.53;0.80;;;3.90;84.30;;;;;;4963696;28;20409;-73
2022/02/23 07:27:34;;;;;;;3.20;1.02;;;3.90;84.60;;;;;;4963979;28;20508;-72
2022/02/23 07:30:00;;;;;;;2.10;1.05;;;3.90;84.60;;;;;;4963642;28;20370;-72
2022/02/23 07:32:31;;;;;;;3.78;1.00;;;4.00;84.10;;;;;;4963703;28;20031;-72
2022/02/23 07:34:57;;;;;;;6.43;1.60;;;4.20;83.40;;;;;;4962954;28;20046;-72
2022/02/23 07:37:23;;;;;;;1.83;0.88;;;4.10;84.20;;;;;;4964074;28;20109;-72
2022/02/23 07:39:53;;;;;;;2.85;1.23;;;4.00;85.10;;;;;;4962952;28;20099;-73
2022/02/23 07:42:19;;;;;;;2.58;1.00;;;4.00;85.60;;;;;;4963781;28;20090;-73
2022/02/23 07:44:46;;;;;;;6.03;1.73;;;3.80;85.30;;;;;;4963360;28;20043;-72
2022/02/23 07:47:12;;;;;;;3.88;1.35;;;3.80;84.30;;;;;;4964600;28;20041;-72
2022/02/23 07:49:38;;;;;;;3.65;1.08;;;3.80;84.20;;;;;;4962905;28;20552;-73
2022/02/23 07:52:04;;;;;;;3.90;1.30;;;4.00;84.50;;;;;;4963221;28;20035;-73
2022/02/23 07:54:30;;;;;;;2.95;1.10;;;4.20;83.80;;;;;;4962356;28;20074;-73
2022/02/23 07:56:56;;;;;;;3.20;1.42;;;4.30;83.90;;;;;;4964054;28;20057;-73
2022/02/23 07:59:22;;;;;;;3.60;1.70;;;4.20;85.30;;;;;;4963217;28;20042;-73
2022/02/23 08:01:49;;;;;;;4.28;1.33;;;4.10;84.20;;;;;;4962687;28;20042;-73
2022/02/23 08:04:15;;;;;;;4.50;1.20;;;4.20;83.90;;;;;;4963888;28;20046;-72
2022/02/23 08:06:41;;;;;;;2.58;1.35;;;4.20;84.40;;;;;;4956328;28;20030;-72
2022/02/23 08:09:09;;;;;;;5.07;1.13;;;4.20;84.00;;;;;;4946052;28;20089;-73
2022/02/23 08:11:37;;;;;;;4.57;1.27;;;4.20;83.90;;;;;;4958952;28;20081;-73
2022/02/23 08:14:06;;;;;;;2.92;1.25;;;4.20;83.90;;;;;;4961904;28;20118;-73
2022/02/23 08:19:34;;;;;;;2.90;1.20;;;4.10;84.10;;;;;;4965322;28;20177;-74
2022/02/23 08:22:13;;;;;;;3.47;1.10;;;4.10;84.00;;;;;;4966483;28;20031;-73
2022/02/23 08:24:48;;;;;;;2.25;1.05;;;4.10;84.20;;;;;;4969925;28;20073;-73
2022/02/23 08:27:21;;;;;;;2.63;0.80;;;4.30;82.90;;;;;;4970833;28;20064;-74
2022/02/23 08:29:48;;;;;;;1.70;0.70;;;4.60;81.70;;;;;;4970746;28;20428;-73
2022/02/23 08:32:16;;;;;;;3.60;1.30;;;4.90;81.30;;;;;;4970304;28;20042;-73
2022/02/23 08:34:44;;;;;;;2.78;0.80;;;4.90;82.20;;;;;;4968737;28;20037;-73
2022/02/23 08:37:10;;;;;;;2.35;0.85;;;4.80;81.70;;;;;;4969904;28;20035;-74
2022/02/23 08:39:37;;;;;;;2.13;1.00;;;4.90;82.30;;;;;;4964167;28;20049;-73
2022/02/23 08:42:04;;;;;;;3.15;1.10;;;4.90;82.50;;;;;;4956134;28;20030;-73
2022/02/23 08:44:30;;;;;;;4.35;2.03;;;5.00;82.70;;;;;;4963838;28;20110;-73
2022/02/23 08:46:56;;;;;;;4.35;1.75;;;5.10;82.70;;;;;;4969160;28;20221;-73
2022/02/23 08:49:22;;;;;;;6.32;2.38;;;5.10;83.40;;;;;;4969714;28;20433;-74
2022/02/23 08:51:48;;;;;;;4.55;1.67;;;5.10;83.70;;;;;;4968411;28;20046;-73
2022/02/23 08:54:15;;;;;;;3.90;1.10;;;5.10;83.80;;;;;;4970271;28;20034;-73
2022/02/23 08:56:42;;;;;;;2.30;0.98;;;5.10;83.20;;;;;;4969621;28;20101;-74
2022/02/23 08:59:08;;;;;;;2.75;1.17;;;5.20;83.50;;;;;;4970187;28;20042;-73
2022/02/23 09:01:33;;;;;;;2.85;1.10;;;5.30;83.10;;;;;;4968240;28;20038;-73
2022/02/23 09:04:04;;;;;;;2.20;0.90;;;5.40;81.70;;;;;;4969261;28;20060;-73
2022/02/23 09:06:35;;;;;;;3.13;1.02;;;5.60;80.70;;;;;;4969911;28;20039;-73
2022/02/23 09:09:03;;;;;;;2.72;1.17;;;5.80;80.80;;;;;;4970124;28;20055;-73
2022/02/23 09:11:29;;;;;;;4.57;1.50;;;5.90;82.10;;;;;;4968017;28;20043;-73
2022/02/23 09:13:56;;;;;;;4.50;2.15;;;6.00;83.20;;;;;;4970296;28;20081;-73
2022/02/23 09:16:21;;;;;;;6.13;2.20;;;6.00;83.90;;;;;;4970765;28;20913;-73
2022/02/23 09:18:47;;;;;;;6.80;1.58;;;5.90;84.00;;;;;;4971528;28;20054;-73
2022/02/23 09:21:13;;;;;;;7.80;1.95;;;5.90;85.50;;;;;;4970234;28;20041;-73
2022/02/23 09:23:38;;;;;;;5.35;2.10;;;5.90;84.40;;;;;;4969312;28;20065;-73
2022/02/23 09:26:05;;;;;;;4.47;2.17;;;5.90;84.40;;;;;;4970436;28;20031;-73
2022/02/23 09:28:31;;;;;;;4.20;2.08;;;5.90;84.90;;;;;;4967876;28;20102;-73
2022/02/23 09:30:58;;;;;;;6.10;2.50;;;5.90;84.10;;;;;;4969302;28;20038;-74
2022/02/23 09:33:24;;;;;;;7.35;2.35;;;6.00;83.60;;;;;;4965328;28;20034;-74
2022/02/23 09:35:50;;;;;;;4.50;2.20;;;6.00;81.90;;;;;;4966487;28;20094;-73
2022/02/23 09:38:17;;;;;;;5.97;2.90;;;6.10;80.90;;;;;;4965586;28;20035;-72
2022/02/23 09:40:52;;;;;;;4.95;1.80;;;6.10;80.90;;;;;;4966714;28;20059;-73
2022/02/23 09:43:18;;;;;;;4.60;1.90;;;6.20;81.90;;;;;;4965788;28;20039;-73
2022/02/23 09:45:53;;;;;;;9.00;2.72;;;6.50;81.20;;;;;;4967252;28;20521;-73
2022/02/23 09:48:29;;;;;;;5.72;1.98;;;6.60;81.30;;;;;;4967294;28;20393;-73
2022/02/23 09:51:00;;;;;;;5.43;2.20;;;6.60;80.90;;;;;;4966953;28;20038;-73
2022/02/23 09:53:26;;;;;;;6.45;1.92;;;6.70;79.80;;;;;;4965314;28;20035;-73
2022/02/23 09:55:56;;;;;;;4.25;2.03;;;6.90;80.60;;;;;;4966947;28;20046;-73
2022/02/23 09:58:25;;;;;;;4.60;1.83;;;6.90;80.40;;;;;;4965129;28;20205;-73
2022/02/23 10:00:54;;;;;;;6.43;1.75;;;7.00;80.00;;;;;;4965960;28;20157;-72
2022/02/23 10:03:21;;;;;;;5.40;2.00;;;7.10;80.30;;;;;;4965147;28;20042;-73
2022/02/23 10:05:47;;;;;;;4.88;1.90;;;7.10;81.10;;;;;;4965686;28;20038;-73
2022/02/23 10:08:14;;;;;;;4.65;1.80;;;7.30;79.90;;;;;;4953173;28;20045;-73
2022/02/23 10:10:42;;;;;;;4.20;2.28;;;7.30;78.90;;;;;;4953045;28;20038;-74
2022/02/23 10:13:09;;;;;;;5.38;1.83;;;7.30;79.70;;;;;;4953237;28;20549;-73
2022/02/23 10:15:40;;;;;;;4.18;1.88;;;7.40;80.40;;;;;;4959627;28;20729;-73
2022/02/23 10:18:11;;;;;;;3.65;1.63;;;7.50;79.50;;;;;;4966434;28;20535;-73
2022/02/23 10:20:39;;;;;;;5.78;2.25;;;7.50;80.10;;;;;;4965292;28;20061;-73
2022/02/23 10:23:23;;;;;;;5.50;2.45;;;7.60;79.90;;;;;;4965600;28;20548;-73
2022/02/23 10:26:01;;;;;;;6.88;2.63;;;7.70;78.90;;;;;;4965255;28;20039;-73
2022/02/23 10:28:28;;;;;;;6.07;2.25;;;7.80;78.90;;;;;;4963363;28;20058;-74
2022/02/23 10:31:00;;;;;;;4.30;1.75;;;7.90;78.80;;;;;;4964687;28;20125;-73
2022/02/23 10:33:30;;;;;;;6.13;2.03;;;7.90;77.90;;;;;;4964136;28;20042;-74
2022/02/23 10:36:02;;;;;;;6.20;2.33;;;8.10;78.80;;;;;;4965155;28;20637;-73
2022/02/23 10:38:33;;;;;;;3.42;1.73;;;8.20;78.80;;;;;;4963557;28;20121;-72
2022/02/23 10:41:01;;;;;;;3.58;1.58;;;8.30;78.60;;;;;;4963016;28;20101;-72
2022/02/23 10:43:34;;;;;;;3.00;1.45;;;8.50;78.20;;;;;;4964106;28;20035;-73
2022/02/23 10:46:18;;;;;;;5.80;1.95;;;8.60;78.00;;;;;;4964385;28;20361;-73
2022/02/23 10:48:46;;;;;;;7.30;1.95;;;8.60;77.70;;;;;;4961935;28;20649;-73
2022/02/23 10:51:23;;;;;;;3.75;1.65;;;8.70;77.80;;;;;;4964565;28;20383;-72
2022/02/23 10:53:51;;;;;;;3.10;1.60;;;8.80;78.40;;;;;;4964321;28;20035;-73
2022/02/23 10:56:31;;;;;;;4.18;1.48;;;8.90;77.50;;;;;;4962792;28;20035;-73
2022/02/23 10:59:02;;;;;;;7.18;2.90;;;8.80;76.60;;;;;;4962595;28;20145;-73
2022/02/23 11:01:29;;;;;;;7.90;4.43;;;8.90;76.30;;;;;;4959146;28;20055;-73
2022/02/23 11:03:55;;;;;;;6.57;2.28;;;9.10;76.40;;;;;;4950620;28;20916;-72
2022/02/23 11:06:23;;;;;;;5.10;2.03;;;9.40;77.30;;;;;;4953449;28;20019;-75
2022/02/23 11:08:53;;;;;;;6.00;1.90;;;9.50;75.60;;;;;;4964396;28;20065;-74
2022/02/23 11:11:24;;;;;;;5.30;1.60;;;9.60;76.00;;;;;;4963174;28;20030;-74
2022/02/23 11:13:50;;;;;;;6.00;1.88;;;9.60;77.10;;;;;;4962029;28;20034;-73
2022/02/23 11:16:17;;;;;;;2.88;2.00;;;9.70;75.10;;;;;;4961469;28;20126;-73
2022/02/23 11:18:46;;;;;;;5.18;1.90;;;10.00;75.60;;;;;;4962531;28;20122;-74
2022/02/23 11:21:14;;;;;;;8.05;2.20;;;10.00;75.20;;;;;;4961087;28;20066;-75
2022/02/23 11:23:41;;;;;;;3.30;1.30;;;10.00;74.70;;;;;;4961634;28;20089;-73
2022/02/23 11:26:09;;;;;;;5.97;2.55;;;10.10;74.00;;;;;;4963347;28;20027;-73
2022/02/23 11:28:40;;;;;;;4.95;2.10;;;10.40;74.60;;;;;;4963749;28;20113;-74
2022/02/23 11:31:11;;;;;;;4.28;1.50;;;10.50;73.20;;;;;;4963890;28;20030;-73
2022/02/23 11:33:54;;;;;;;4.15;1.80;;;10.60;74.60;;;;;;4959695;28;20030;-73
2022/02/23 11:36:25;;;;;;;3.65;1.52;;;10.50;73.20;;;;;;4963188;28;20046;-73
2022/02/23 11:38:52;;;;;;;3.25;1.42;;;10.50;72.90;;;;;;4963576;28;20584;-73
2022/02/23 11:41:24;;;;;;;5.18;1.73;;;10.60;73.10;;;;;;4965244;28;20038;-73
2022/02/23 11:44:15;;;;;;;5.05;1.55;;;10.90;72.70;;;;;;4966382;28;20035;-72
2022/02/23 11:46:50;;;;;;;3.25;1.33;;;11.20;72.80;;;;;;4964744;28;20054;-73
2022/02/23 11:49:17;;;;;;;6.13;2.40;;;11.30;73.30;;;;;;4966769;28;20121;-74
2022/02/23 11:51:44;;;;;;;4.68;1.65;;;11.50;73.90;;;;;;4966442;28;20031;-73
2022/02/23 11:54:12;;;;;;;6.63;1.80;;;11.50;72.20;;;;;;4959577;28;20049;-74
2022/02/23 11:56:46;;;;;;;7.07;1.42;;;11.30;73.00;;;;;;4960200;28;20038;-73
2022/02/23 11:59:44;;;;;;;3.03;1.27;;;11.30;71.20;;;;;;4967625;28;20089;-74
2022/02/23 12:02:14;;;;;;;3.40;1.30;;;11.50;71.60;;;;;;4966425;28;20031;-73
2022/02/23 12:04:50;;;;;;;2.85;1.23;;;11.40;71.00;;;;;;4965179;28;20581;-73
2022/02/23 12:07:16;;;;;;;3.60;1.42;;;11.60;72.20;;;;;;4964993;28;20059;-73
2022/02/23 12:09:46;;;;;;;4.93;1.92;;;11.80;71.20;;;;;;4960535;28;20058;-74
2022/02/23 12:12:41;;;;;;;3.95;1.35;;;11.90;72.30;;;;;;4966203;28;20105;-73
2022/02/23 12:15:23;;;;;;;3.50;1.73;;;12.00;72.70;;;;;;4967287;28;20039;-75
2022/02/23 12:17:59;;;;;;;5.00;2.13;;;12.30;71.60;;;;;;4959681;28;20034;-74
2022/02/23 12:20:37;;;;;;;5.05;2.08;;;12.40;72.20;;;;;;4965450;28;20069;-73
2022/02/23 12:23:08;;;;;;;4.63;1.85;;;12.40;71.70;;;;;;4965271;28;20481;-71
2022/02/23 12:25:51;;;;;;;7.65;1.88;;;12.20;70.70;;;;;;4965736;28;20113;-71
2022/02/23 12:28:30;;;;;;;4.30;1.35;;;12.30;71.00;;;;;;4966569;28;20125;-71
2022/02/23 12:31:09;;;;;;;9.68;1.85;;;12.40;71.40;;;;;;4964043;28;20026;-73
2022/02/23 12:33:37;;;;;;;4.55;1.50;;;12.40;71.50;;;;;;4961988;28;20086;-72
2022/02/23 12:36:05;;;;;;;5.53;1.67;;;12.60;70.50;;;;;;4962338;28;20465;-72
2022/02/23 12:38:34;;;;;;;5.10;1.80;;;12.80;71.60;;;;;;4963502;28;20519;-71
2022/02/23 12:41:03;;;;;;;4.45;1.75;;;12.90;70.40;;;;;;4962424;28;20042;-72
2022/02/23 12:43:29;;;;;;;3.83;1.90;;;13.10;70.80;;;;;;4963008;28;20113;-72
2022/02/23 12:45:57;;;;;;;4.45;1.23;;;13.10;71.30;;;;;;4962152;28;20077;-72
2022/02/23 12:48:31;;;;;;;4.28;1.90;;;13.20;70.80;;;;;;4963322;28;20482;-72
2022/02/23 12:51:00;;;;;;;5.85;2.15;;;13.20;70.70;;;;;;4963155;28;20038;-72
2022/02/23 12:53:53;;;;;;;4.90;1.52;;;13.10;69.90;;;;;;4962003;28;20034;-72
2022/02/23 12:56:27;;;;;;;5.53;1.50;;;13.20;69.90;;;;;;4960952;28;20051;-72
2022/02/23 12:58:57;;;;;;;5.47;1.40;;;13.20;71.20;;;;;;4962301;28;20026;-72
2022/02/23 13:01:33;;;;;;;4.07;1.73;;;13.20;70.00;;;;;;4962589;28;20035;-72